createdAt,value
2023-08-05T00:00:01.737Z,92.58
2023-08-05T00:02:29.750Z,91.97
2023-08-05T00:04:59.240Z,92.22
2023-08-05T00:07:27.078Z,92.14
2023-08-05T00:09:55.281Z,93.26
2023-08-05T00:12:23.088Z,93.24
2023-08-05T00:14:51.062Z,93.17
2023-08-05T00:17:18.950Z,92.92
2023-08-05T00:19:47.164Z,93.22
2023-08-05T00:22:16.393Z,93.37
2023-08-05T00:24:44.286Z,93.73
2023-08-05T00:27:12.070Z,93.84
2023-08-05T00:29:40.084Z,93.92
2023-08-05T00:32:08.509Z,93.96
2023-08-05T00:34:36.806Z,93.60
2023-08-05T00:37:04.812Z,93.27
2023-08-05T00:39:34.037Z,93.65
2023-08-05T00:42:02.083Z,94.27
2023-08-05T00:44:30.432Z,94.38
2023-08-05T00:46:59.119Z,95.11
2023-08-05T00:49:27.299Z,94.51
2023-08-05T00:51:56.882Z,94.91
2023-08-05T00:54:24.772Z,94.88
2023-08-05T00:56:55.150Z,95.33
2023-08-05T00:59:22.886Z,95.80
2023-08-05T01:01:51.015Z,95.50
2023-08-05T01:04:19.075Z,95.61
2023-08-05T01:06:47.761Z,95.68
2023-08-05T01:09:16.220Z,95.76
2023-08-05T01:11:44.175Z,95.95
2023-08-05T01:14:13.281Z,95.94
2023-08-05T01:16:41.349Z,95.80
2023-08-05T01:19:15.037Z,96.27
2023-08-05T01:21:47.644Z,96.62
2023-08-05T01:24:22.871Z,96.02
2023-08-05T01:26:53.706Z,96.51
2023-08-05T01:29:21.492Z,96.38
2023-08-05T01:31:52.022Z,96.76
2023-08-05T01:34:20.926Z,96.44
2023-08-05T01:36:48.907Z,97.00
2023-08-05T01:39:17.117Z,96.82
2023-08-05T01:41:45.106Z,96.57
2023-08-05T01:44:14.404Z,96.73
2023-08-05T01:46:42.486Z,96.89
2023-08-05T01:49:10.296Z,97.03
2023-08-05T01:51:38.210Z,96.83
2023-08-05T01:54:06.026Z,97.10
2023-08-05T01:56:33.857Z,97.28
2023-08-05T01:59:01.926Z,97.02
2023-08-05T02:01:43.254Z,97.23
2023-08-05T02:04:11.458Z,96.94
2023-08-05T02:06:39.532Z,97.14
2023-08-05T02:09:07.806Z,97.32
2023-08-05T02:11:36.135Z,97.68
2023-08-05T02:14:04.784Z,97.51
2023-08-05T02:16:34.614Z,97.33
2023-08-05T02:19:04.210Z,97.50
2023-08-05T02:21:33.438Z,97.87
2023-08-05T02:24:01.167Z,97.50
2023-08-05T02:26:29.332Z,97.83
2023-08-05T02:28:57.186Z,97.75
2023-08-05T02:31:24.991Z,97.61
2023-08-05T02:33:53.002Z,97.58
2023-08-05T02:36:22.125Z,97.36
2023-08-05T02:38:50.047Z,97.69
2023-08-05T02:41:17.855Z,97.52
2023-08-05T02:43:45.696Z,97.64
2023-08-05T02:46:13.905Z,97.85
2023-08-05T02:48:41.733Z,97.64
2023-08-05T02:51:09.820Z,97.74
2023-08-05T02:53:39.567Z,97.41
2023-08-05T02:56:07.430Z,97.67
2023-08-05T02:58:35.396Z,97.58
2023-08-05T03:01:08.288Z,97.39
2023-08-05T03:03:36.334Z,97.23
2023-08-05T03:06:04.610Z,97.63
2023-08-05T03:08:33.054Z,97.86
2023-08-05T03:11:03.041Z,98.13
2023-08-05T03:13:33.594Z,98.27
2023-08-05T03:16:11.612Z,97.93
2023-08-05T03:18:44.977Z,97.50
2023-08-05T03:21:12.926Z,97.06
2023-08-05T03:23:41.536Z,97.08
2023-08-05T03:26:11.870Z,97.44
2023-08-05T03:28:39.904Z,97.34
2023-08-05T03:31:10.180Z,97.53
2023-08-05T03:33:38.275Z,98.09
2023-08-05T03:36:07.779Z,98.23
2023-08-05T03:38:35.871Z,97.97
2023-08-05T03:41:04.601Z,98.08
2023-08-05T03:43:34.870Z,97.94
2023-08-05T03:46:04.335Z,97.88
2023-08-05T03:48:32.574Z,97.73
2023-08-05T03:51:00.592Z,97.74
2023-08-05T03:53:29.054Z,97.79
2023-08-05T03:55:56.822Z,97.60
2023-08-05T03:58:24.923Z,97.73
2023-08-05T04:00:55.436Z,97.83
2023-08-05T04:03:24.238Z,98.00
2023-08-05T04:05:52.066Z,98.11
2023-08-05T04:08:21.079Z,98.44
2023-08-05T04:10:49.324Z,98.18
2023-08-05T04:13:18.738Z,98.04
2023-08-05T04:15:48.311Z,98.07
2023-08-05T04:18:17.775Z,98.21
2023-08-05T04:20:47.319Z,98.40
2023-08-05T04:23:17.412Z,98.30
2023-08-05T04:25:47.149Z,98.31
2023-08-05T04:28:15.097Z,98.23
2023-08-05T04:30:43.412Z,98.17
2023-08-05T04:33:11.963Z,98.06
2023-08-05T04:35:46.153Z,98.19
2023-08-05T04:38:13.956Z,98.14
2023-08-05T04:40:41.798Z,98.24
2023-08-05T04:43:09.774Z,98.26
2023-08-05T04:45:37.851Z,97.96
2023-08-05T04:48:08.232Z,98.24
2023-08-05T04:50:38.494Z,98.27
2023-08-05T04:53:08.588Z,98.42
2023-08-05T04:55:36.659Z,98.79
2023-08-05T04:58:05.104Z,98.25
2023-08-05T05:00:33.250Z,98.20
2023-08-05T05:03:01.148Z,98.15
2023-08-05T05:05:29.042Z,98.21
2023-08-05T05:07:57.089Z,98.44
2023-08-05T05:10:26.227Z,98.47
2023-08-05T05:12:53.981Z,98.30
2023-08-05T05:15:23.269Z,98.40
2023-08-05T05:17:51.776Z,98.31
2023-08-05T05:20:19.747Z,98.30
2023-08-05T05:22:47.524Z,98.30
2023-08-05T05:25:15.290Z,98.33
2023-08-05T05:27:44.683Z,98.21
2023-08-05T05:30:13.090Z,98.05
2023-08-05T05:32:40.856Z,98.43
2023-08-05T05:35:09.670Z,98.17
2023-08-05T05:37:37.473Z,98.35
2023-08-05T05:40:06.322Z,98.11
2023-08-05T05:42:35.011Z,97.93
2023-08-05T05:45:04.242Z,97.92
2023-08-05T05:47:32.436Z,97.79
2023-08-05T05:50:00.313Z,97.74
2023-08-05T05:52:28.037Z,97.46
2023-08-05T05:54:56.142Z,97.50
2023-08-05T05:57:24.419Z,97.12
2023-08-05T05:59:52.241Z,97.48
2023-08-05T06:02:21.499Z,96.79
2023-08-05T06:04:49.732Z,96.62
2023-08-05T06:07:17.580Z,95.33
2023-08-05T06:09:45.477Z,94.73
2023-08-05T06:12:13.253Z,94.75
2023-08-05T06:14:41.406Z,93.17
2023-08-05T06:17:09.308Z,91.87
2023-08-05T06:19:38.512Z,91.80
2023-08-05T06:22:07.224Z,91.44
2023-08-05T06:24:35.001Z,91.57
2023-08-05T06:27:02.929Z,90.80
2023-08-05T06:29:30.717Z,90.88
2023-08-05T06:31:58.819Z,90.08
2023-08-05T06:34:26.616Z,90.98
2023-08-05T06:36:55.734Z,90.81
2023-08-05T06:39:23.868Z,90.59
2023-08-05T06:41:51.948Z,90.18
2023-08-05T06:44:23.420Z,90.59
2023-08-05T06:46:51.473Z,89.59
2023-08-05T06:49:19.267Z,89.77
2023-08-05T06:51:48.968Z,89.40
2023-08-05T06:54:18.892Z,90.06
2023-08-05T06:56:47.075Z,89.31
2023-08-05T06:59:15.185Z,89.08
2023-08-05T07:01:43.014Z,88.44
2023-08-05T07:04:11.088Z,87.56
2023-08-05T07:06:39.552Z,86.67
2023-08-05T07:09:07.442Z,86.42
2023-08-05T07:11:37.195Z,85.52
2023-08-05T07:14:04.857Z,84.91
2023-08-05T07:16:32.850Z,82.94
2023-08-05T07:19:00.563Z,81.23
2023-08-05T07:21:28.578Z,79.07
2023-08-05T07:23:56.266Z,78.74
2023-08-05T07:26:23.935Z,76.13
2023-08-05T07:28:53.214Z,74.80
2023-08-05T07:31:21.069Z,73.21
2023-08-05T07:33:48.921Z,71.41
2023-08-05T07:36:17.854Z,68.93
2023-08-05T07:38:47.814Z,64.89
2023-08-05T07:41:17.276Z,64.28
2023-08-05T07:43:45.248Z,63.52
2023-08-05T07:46:15.002Z,65.07
2023-08-05T07:48:43.681Z,64.48
2023-08-05T07:51:11.610Z,63.66
2023-08-05T07:53:39.378Z,64.15
2023-08-05T07:56:11.208Z,64.70
2023-08-05T07:58:41.824Z,62.06
2023-08-05T08:01:09.883Z,60.96
2023-08-05T08:03:38.968Z,63.18
2023-08-05T08:06:07.105Z,60.79
2023-08-05T08:08:34.813Z,64.04
2023-08-05T08:11:02.540Z,64.91
2023-08-05T08:13:30.465Z,64.20
2023-08-05T08:15:58.160Z,63.59
2023-08-05T08:18:25.863Z,63.79
2023-08-05T08:20:55.377Z,66.15
2023-08-05T08:23:24.041Z,66.28
2023-08-05T08:25:52.020Z,66.47
2023-08-05T08:28:19.694Z,65.35
2023-08-05T08:30:55.888Z,66.79
2023-08-05T08:33:24.380Z,66.63
2023-08-05T08:35:52.727Z,66.85
2023-08-05T08:38:23.763Z,65.79
2023-08-05T08:40:53.309Z,65.56
2023-08-05T08:43:21.784Z,66.58
2023-08-05T08:45:53.577Z,65.62
2023-08-05T08:48:25.035Z,61.59
2023-08-05T08:50:54.791Z,62.33
2023-08-05T08:53:23.952Z,63.29
2023-08-05T08:55:51.856Z,64.25
2023-08-05T08:58:19.701Z,65.06
2023-08-05T09:00:48.525Z,64.26
2023-08-05T09:03:17.136Z,62.17
2023-08-05T09:05:51.570Z,61.84
2023-08-05T09:08:19.410Z,60.18
2023-08-05T09:10:48.518Z,58.64
2023-08-05T09:13:17.997Z,60.08
2023-08-05T09:15:48.017Z,58.50
2023-08-05T09:18:15.807Z,59.52
2023-08-05T09:20:43.803Z,59.29
2023-08-05T09:23:12.955Z,61.07
2023-08-05T09:25:42.671Z,58.28
2023-08-05T09:28:12.094Z,58.72
2023-08-05T09:30:39.947Z,59.18
2023-08-05T09:33:08.064Z,58.29
2023-08-05T09:35:35.774Z,58.07
2023-08-05T09:38:04.529Z,58.04
2023-08-05T09:40:33.938Z,56.59
2023-08-05T09:43:04.058Z,56.78
2023-08-05T09:45:34.708Z,57.34
2023-08-05T09:48:08.128Z,57.73
2023-08-05T09:50:39.109Z,54.43
2023-08-05T09:53:08.571Z,53.17
2023-08-05T09:55:36.546Z,55.13
2023-08-05T09:58:09.316Z,53.80
2023-08-05T10:00:41.570Z,53.08
2023-08-05T10:03:15.596Z,51.32
2023-08-05T10:05:45.249Z,51.68
2023-08-05T10:08:15.084Z,55.24
2023-08-05T10:10:44.237Z,52.21
2023-08-05T10:13:15.793Z,51.93
2023-08-05T10:15:49.228Z,51.81
2023-08-05T10:18:18.087Z,52.35
2023-08-05T10:20:51.976Z,53.27
2023-08-05T10:23:20.292Z,55.77
2023-08-05T10:25:49.244Z,52.23
2023-08-05T10:28:41.767Z,56.25
2023-08-05T10:34:13.503Z,53.01
2023-08-05T10:36:45.635Z,53.86
2023-08-05T10:39:45.312Z,55.17
2023-08-05T10:42:33.235Z,57.86
2023-08-05T10:45:01.670Z,55.15
2023-08-05T10:47:29.709Z,55.08
2023-08-05T10:50:01.503Z,53.30
2023-08-05T10:52:30.797Z,53.99
2023-08-05T10:54:59.569Z,55.53
2023-08-05T10:57:45.806Z,54.96
2023-08-05T11:00:20.391Z,55.19
2023-08-05T11:02:50.976Z,53.92
2023-08-05T11:05:25.365Z,54.80
2023-08-05T11:07:55.720Z,55.26
2023-08-05T11:10:23.426Z,51.82
2023-08-05T11:12:56.391Z,50.59
2023-08-05T11:15:24.035Z,52.62
2023-08-05T11:17:54.846Z,51.33
2023-08-05T11:20:32.434Z,48.46
2023-08-05T11:23:00.957Z,50.37
2023-08-05T11:25:28.989Z,49.83
2023-08-05T11:27:56.958Z,50.07
2023-08-05T11:30:24.893Z,47.82
2023-08-05T11:32:53.951Z,50.74
2023-08-05T11:35:22.253Z,49.36
2023-08-05T11:37:51.340Z,46.74
2023-08-05T11:40:19.672Z,48.20
2023-08-05T11:42:47.983Z,47.13
2023-08-05T11:45:17.669Z,48.15
2023-08-05T11:47:45.553Z,48.53
2023-08-05T11:50:14.674Z,48.44
2023-08-05T11:52:42.848Z,51.20
2023-08-05T11:55:12.310Z,49.96
2023-08-05T11:57:40.223Z,52.71
2023-08-05T12:00:11.024Z,52.50
2023-08-05T12:02:39.943Z,50.84
2023-08-05T12:05:12.221Z,47.82
2023-08-05T12:07:42.445Z,48.96
2023-08-05T12:10:14.093Z,48.07
2023-08-05T12:12:45.949Z,50.31
2023-08-05T12:15:15.116Z,50.27
2023-08-05T12:17:48.167Z,50.80
2023-08-05T12:20:18.839Z,51.02
2023-08-05T12:22:46.607Z,46.78
2023-08-05T12:25:16.420Z,45.00
2023-08-05T12:27:44.443Z,48.10
2023-08-05T12:30:12.892Z,51.32
2023-08-05T12:32:41.016Z,49.90
2023-08-05T12:35:10.607Z,50.55
2023-08-05T12:37:40.954Z,51.68
2023-08-05T12:40:10.804Z,53.12
2023-08-05T12:42:40.076Z,53.10
2023-08-05T12:45:10.523Z,51.30
2023-08-05T12:47:39.827Z,53.33
2023-08-05T12:50:09.403Z,53.37
2023-08-05T12:52:37.535Z,54.31
2023-08-05T12:55:06.261Z,56.07
2023-08-05T12:57:34.357Z,57.30
2023-08-05T13:00:03.836Z,54.73
2023-08-05T13:02:32.115Z,54.21
2023-08-05T13:04:59.975Z,55.46
2023-08-05T13:07:27.719Z,55.73
2023-08-05T13:09:55.709Z,56.39
2023-08-05T13:12:23.408Z,58.08
2023-08-05T13:14:51.292Z,60.60
2023-08-05T13:17:20.258Z,64.89
2023-08-05T13:19:47.893Z,74.61
2023-08-05T13:22:15.564Z,79.55
2023-08-05T13:24:43.864Z,81.46
2023-08-05T13:27:11.674Z,87.70
2023-08-05T13:29:39.373Z,87.84
2023-08-05T13:32:08.139Z,90.80
2023-08-05T13:34:37.433Z,91.38
2023-08-05T13:37:05.702Z,88.63
2023-08-05T13:39:33.598Z,87.71
2023-08-05T13:42:01.992Z,86.87
2023-08-05T13:44:30.042Z,84.50
2023-08-05T13:46:58.141Z,84.80
2023-08-05T13:49:26.857Z,82.10
2023-08-05T13:51:56.341Z,82.42
2023-08-05T13:54:24.342Z,81.81
2023-08-05T13:56:52.105Z,79.73
2023-08-05T13:59:20.036Z,80.02
2023-08-05T14:01:47.963Z,75.01
2023-08-05T14:04:16.077Z,72.73
2023-08-05T14:06:43.775Z,62.38
2023-08-05T14:09:12.929Z,62.58
2023-08-05T14:11:40.918Z,66.65
2023-08-05T14:14:08.602Z,65.34
2023-08-05T14:16:40.354Z,67.81
2023-08-05T14:19:08.506Z,69.59
2023-08-05T14:21:37.043Z,63.66
2023-08-05T14:24:05.019Z,58.76
2023-08-05T14:26:34.043Z,59.13
2023-08-05T14:29:02.002Z,57.84
2023-08-05T14:31:29.754Z,57.91
2023-08-05T14:33:57.747Z,57.44
2023-08-05T14:36:26.502Z,58.60
2023-08-05T14:38:54.227Z,58.00
2023-08-05T14:41:22.722Z,63.40
2023-08-05T14:43:51.747Z,53.93
2023-08-05T14:46:19.777Z,55.86
2023-08-05T14:48:48.227Z,52.88
2023-08-05T14:51:15.886Z,54.77
2023-08-05T14:53:43.735Z,54.39
2023-08-05T14:56:11.509Z,53.73
2023-08-05T14:58:39.415Z,50.49
2023-08-05T15:01:17.575Z,51.63
2023-08-05T15:03:46.784Z,53.54
2023-08-05T15:06:14.712Z,52.13
2023-08-05T15:08:42.528Z,55.69
2023-08-05T15:11:12.687Z,52.95
2023-08-05T15:13:40.779Z,54.47
2023-08-05T15:16:10.112Z,53.69
2023-08-05T15:18:37.802Z,56.16
2023-08-05T15:21:06.048Z,53.04
2023-08-05T15:23:34.566Z,52.94
2023-08-05T15:26:03.947Z,51.62
2023-08-05T15:28:32.290Z,49.60
2023-08-05T15:31:00.118Z,49.55
2023-08-05T15:33:29.260Z,49.34
2023-08-05T15:35:56.949Z,46.76
2023-08-05T15:38:24.742Z,48.86
2023-08-05T15:40:59.173Z,48.99
2023-08-05T15:43:26.901Z,47.23
2023-08-05T15:45:57.938Z,45.05
2023-08-05T15:48:26.104Z,47.20
2023-08-05T15:50:55.509Z,49.02
2023-08-05T15:53:23.214Z,47.54
2023-08-05T15:55:59.818Z,48.80
2023-08-05T15:58:27.469Z,51.26
2023-08-05T16:01:02.811Z,47.74
2023-08-05T16:03:30.974Z,47.50
2023-08-05T16:06:05.087Z,47.35
2023-08-05T16:08:33.224Z,46.99
2023-08-05T16:11:02.218Z,47.78
2023-08-05T16:13:30.194Z,49.42
2023-08-05T16:16:07.084Z,47.57
2023-08-05T16:18:35.102Z,48.63
2023-08-05T16:21:12.271Z,51.18
2023-08-05T16:23:39.954Z,52.46
2023-08-05T16:26:11.745Z,49.21
2023-08-05T16:28:39.471Z,49.95
2023-08-05T16:31:08.054Z,48.39
2023-08-05T16:33:36.269Z,46.37
2023-08-05T16:36:05.341Z,45.64
2023-08-05T16:38:34.519Z,46.22
2023-08-05T16:41:03.238Z,46.71
2023-08-05T16:43:31.675Z,46.99
2023-08-05T16:46:00.469Z,49.39
2023-08-05T16:48:28.389Z,50.08
2023-08-05T16:50:56.076Z,49.99
2023-08-05T16:53:24.170Z,51.12
2023-08-05T16:55:53.916Z,50.79
2023-08-05T16:58:23.586Z,52.60
2023-08-05T17:00:52.024Z,53.62
2023-08-05T17:03:19.837Z,53.88
2023-08-05T17:05:47.685Z,52.70
2023-08-05T17:08:15.492Z,53.31
2023-08-05T17:10:43.236Z,52.14
2023-08-05T17:13:12.581Z,52.20
2023-08-05T17:15:43.699Z,54.00
2023-08-05T17:18:11.699Z,53.83
2023-08-05T17:20:39.359Z,57.21
2023-08-05T17:23:07.565Z,60.78
2023-08-05T17:25:40.569Z,63.77
2023-08-05T17:28:08.774Z,66.45
2023-08-05T17:30:38.120Z,69.19
2023-08-05T17:33:06.478Z,68.98
2023-08-05T17:35:35.733Z,72.12
2023-08-05T17:38:04.486Z,75.15
2023-08-05T17:40:33.046Z,77.99
2023-08-05T17:43:00.764Z,79.69
2023-08-05T17:45:28.741Z,79.85
2023-08-05T17:47:57.775Z,82.07
2023-08-05T17:50:26.231Z,81.81
2023-08-05T17:52:54.578Z,83.37
2023-08-05T17:55:22.598Z,82.25
2023-08-05T17:57:50.261Z,83.72
2023-08-05T18:00:18.577Z,84.97
2023-08-05T18:02:46.373Z,82.98
2023-08-05T18:05:18.812Z,83.67
2023-08-05T18:07:46.589Z,85.03
2023-08-05T18:10:14.483Z,86.31
2023-08-05T18:12:42.155Z,86.56
2023-08-05T18:15:10.762Z,88.67
2023-08-05T18:17:38.437Z,89.41
2023-08-05T18:20:07.319Z,90.80
2023-08-05T18:22:36.918Z,90.86
2023-08-05T18:25:04.959Z,90.44
2023-08-05T18:27:33.202Z,90.47
2023-08-05T18:30:00.894Z,90.82
2023-08-05T18:32:28.620Z,90.88
2023-08-05T18:34:56.782Z,91.06
2023-08-05T18:37:24.455Z,90.70
2023-08-05T18:39:53.728Z,90.17
2023-08-05T18:42:21.402Z,90.50
2023-08-05T18:44:49.194Z,90.34
2023-08-05T18:47:16.869Z,91.34
2023-08-05T18:49:44.670Z,92.03
2023-08-05T18:52:12.362Z,91.59
2023-08-05T18:54:40.103Z,91.84
2023-08-05T18:57:09.216Z,91.80
2023-08-05T18:59:36.911Z,91.96
2023-08-05T19:02:05.105Z,91.67
2023-08-05T19:04:32.811Z,91.58
2023-08-05T19:07:01.682Z,92.43
2023-08-05T19:09:29.467Z,92.77
2023-08-05T19:11:58.154Z,92.60
2023-08-05T19:14:27.828Z,92.76
2023-08-05T19:16:55.534Z,93.07
2023-08-05T19:19:23.300Z,92.80
2023-08-05T19:21:51.257Z,93.03
2023-08-05T19:24:19.366Z,92.91
2023-08-05T19:26:48.033Z,93.03
2023-08-05T19:29:17.094Z,93.06
2023-08-05T19:31:46.149Z,93.38
2023-08-05T19:34:14.295Z,93.62
2023-08-05T19:36:41.981Z,93.49
2023-08-05T19:39:09.974Z,93.95
2023-08-05T19:41:37.848Z,94.88
2023-08-05T19:44:07.936Z,95.31
2023-08-05T19:46:35.677Z,96.08
2023-08-05T19:49:05.230Z,96.09
2023-08-05T19:51:32.955Z,96.25
2023-08-05T19:54:00.890Z,96.28
2023-08-05T19:56:28.541Z,96.67
2023-08-05T19:58:56.445Z,96.97
2023-08-05T20:01:24.342Z,97.18
2023-08-05T20:03:52.039Z,97.22
2023-08-05T20:06:21.150Z,97.21
2023-08-05T20:08:48.811Z,97.40
2023-08-05T20:11:16.763Z,97.73
2023-08-05T20:13:44.445Z,97.44
2023-08-05T20:16:12.562Z,97.32
2023-08-05T20:18:40.262Z,97.32
2023-08-05T20:21:08.067Z,97.06
2023-08-05T20:23:37.498Z,97.36
2023-08-05T20:26:09.444Z,97.44
2023-08-05T20:28:37.167Z,97.34
2023-08-05T20:31:05.113Z,97.38
2023-08-05T20:33:32.826Z,97.16
2023-08-05T20:36:01.150Z,97.36
2023-08-05T20:38:28.944Z,97.43
2023-08-05T20:40:58.263Z,97.35
2023-08-05T20:43:25.916Z,97.37
2023-08-05T20:45:54.688Z,97.56
2023-08-05T20:48:22.581Z,97.03
2023-08-05T20:50:57.149Z,97.33
2023-08-05T20:53:24.957Z,97.07
2023-08-05T20:55:52.846Z,97.34
2023-08-05T20:58:21.863Z,96.82
2023-08-05T21:00:49.530Z,97.42
2023-08-05T21:03:17.215Z,96.89
2023-08-05T21:05:44.924Z,97.64
2023-08-05T21:08:12.878Z,97.85
2023-08-05T21:10:40.596Z,97.67
2023-08-05T21:13:08.501Z,97.61
2023-08-05T21:15:42.824Z,97.29
2023-08-05T21:18:10.736Z,96.82
2023-08-05T21:20:38.476Z,96.77
2023-08-05T21:23:06.447Z,96.99
2023-08-05T21:25:34.261Z,97.43
2023-08-05T21:28:01.938Z,96.74
2023-08-05T21:30:29.594Z,96.17
2023-08-05T21:32:58.872Z,96.84
2023-08-05T21:35:26.583Z,96.54
2023-08-05T21:37:54.544Z,96.87
2023-08-05T21:40:22.223Z,96.89
2023-08-05T21:42:50.314Z,96.90
2023-08-05T21:45:18.335Z,96.33
2023-08-05T21:47:46.255Z,96.03
2023-08-05T21:50:15.319Z,95.64
2023-08-05T21:52:43.070Z,95.89
2023-08-05T21:55:10.899Z,95.78
2023-08-05T21:57:38.753Z,95.35
2023-08-05T22:00:12.923Z,95.36
2023-08-05T22:02:41.187Z,95.42
2023-08-05T22:05:09.108Z,95.21
2023-08-05T22:07:38.377Z,95.47
2023-08-05T22:10:06.826Z,95.89
2023-08-05T22:12:34.801Z,95.57
2023-08-05T22:15:03.444Z,95.82
2023-08-05T22:17:31.190Z,95.51
2023-08-05T22:19:58.936Z,95.46
2023-08-05T22:22:26.888Z,92.13
2023-08-05T22:24:56.074Z,89.53
2023-08-05T22:27:24.221Z,90.56
2023-08-05T22:29:51.889Z,89.42
2023-08-05T22:32:19.826Z,89.47
2023-08-05T22:34:47.624Z,88.60
2023-08-05T22:37:15.339Z,88.05
2023-08-05T22:39:43.401Z,88.23
2023-08-05T22:42:12.430Z,89.96
2023-08-05T22:44:40.411Z,89.85
2023-08-05T22:47:08.104Z,89.69
2023-08-05T22:49:36.054Z,88.78
2023-08-05T22:52:04.043Z,88.79
2023-08-05T22:54:32.447Z,88.63
2023-08-05T22:57:00.104Z,89.56
2023-08-05T22:59:29.390Z,89.07
2023-08-05T23:01:57.029Z,90.09
2023-08-05T23:04:26.493Z,88.74
2023-08-05T23:06:54.188Z,87.54
2023-08-05T23:09:22.118Z,87.54
2023-08-05T23:11:49.753Z,87.36
2023-08-05T23:14:17.706Z,88.08
2023-08-05T23:16:46.677Z,86.94
2023-08-05T23:19:14.677Z,87.65
2023-08-05T23:21:43.813Z,86.48
2023-08-05T23:24:12.430Z,86.68
2023-08-05T23:26:42.197Z,86.91
2023-08-05T23:29:10.161Z,86.92
2023-08-05T23:31:37.826Z,86.27
2023-08-05T23:34:07.079Z,86.91
2023-08-05T23:36:34.778Z,85.01
2023-08-05T23:39:02.644Z,86.01
2023-08-05T23:41:30.612Z,85.75
2023-08-05T23:43:58.520Z,84.75
2023-08-05T23:46:26.722Z,85.62
2023-08-05T23:48:54.720Z,85.64
2023-08-05T23:51:23.761Z,86.06
2023-08-05T23:53:51.909Z,86.47
2023-08-05T23:56:19.587Z,86.43
2023-08-05T23:58:47.329Z,86.51
